createdAt,value
2019-05-29T00:01:34.033Z,4.93
2019-05-29T00:04:08.131Z,4.43
2019-05-29T00:06:41.515Z,4.50
2019-05-29T00:09:14.529Z,4.47
2019-05-29T00:11:48.074Z,4.60
2019-05-29T00:14:27.093Z,4.80
2019-05-29T00:16:55.678Z,4.40
2019-05-29T00:19:28.822Z,4.33
2019-05-29T00:22:02.077Z,4.23
2019-05-29T00:24:35.426Z,4.30
2019-05-29T00:27:12.562Z,4.73
2019-05-29T00:29:42.875Z,4.87
2019-05-29T00:32:17.188Z,4.30
2019-05-29T00:34:50.276Z,4.40
2019-05-29T00:37:23.424Z,4.53
2019-05-29T00:39:56.512Z,4.20
2019-05-29T00:42:29.559Z,4.20
2019-05-29T00:45:02.461Z,4.70
2019-05-29T00:47:35.350Z,4.40
2019-05-29T00:50:09.902Z,4.57
2019-05-29T00:52:43.180Z,4.97
2019-05-29T00:55:16.937Z,4.30
2019-05-29T00:57:50.081Z,4.50
2019-05-29T01:00:23.404Z,4.60
2019-05-29T01:02:56.563Z,4.17
2019-05-29T01:05:29.411Z,4.30
2019-05-29T01:08:02.378Z,4.63
2019-05-29T01:10:35.910Z,4.43
2019-05-29T01:13:09.271Z,4.30
2019-05-29T01:15:42.318Z,4.57
2019-05-29T01:18:15.785Z,4.20
2019-05-29T01:20:49.024Z,4.47
2019-05-29T01:23:22.500Z,5.23
2019-05-29T01:25:55.529Z,4.87
2019-05-29T01:28:28.740Z,4.30
2019-05-29T01:31:01.758Z,4.77
2019-05-29T01:33:35.736Z,4.47
2019-05-29T01:36:09.046Z,4.40
2019-05-29T01:38:42.327Z,4.17
2019-05-29T01:41:15.452Z,4.93
2019-05-29T01:43:48.464Z,4.47
2019-05-29T01:46:22.202Z,4.33
2019-05-29T01:48:55.298Z,5.27
2019-05-29T01:51:28.657Z,4.60
2019-05-29T01:54:01.728Z,4.57
2019-05-29T01:56:34.788Z,4.80
2019-05-29T01:59:08.017Z,4.90
2019-05-29T02:01:40.978Z,4.60
2019-05-29T02:04:13.977Z,4.60
2019-05-29T02:06:47.115Z,4.33
2019-05-29T02:09:20.297Z,4.97
2019-05-29T02:11:53.745Z,4.60
2019-05-29T02:14:28.104Z,4.67
2019-05-29T02:17:01.064Z,4.63
2019-05-29T02:19:34.140Z,4.67
2019-05-29T02:22:07.590Z,4.80
2019-05-29T02:24:40.985Z,4.30
2019-05-29T02:27:14.057Z,5.63
2019-05-29T02:29:47.302Z,4.83
2019-05-29T02:32:21.389Z,4.87
2019-05-29T02:34:54.443Z,4.87
2019-05-29T02:37:28.965Z,5.00
2019-05-29T02:40:02.442Z,5.10
2019-05-29T02:42:35.642Z,4.80
2019-05-29T02:45:10.339Z,5.33
2019-05-29T02:47:43.348Z,4.87
2019-05-29T02:50:16.590Z,4.97
2019-05-29T02:52:49.702Z,5.03
2019-05-29T02:55:24.363Z,5.03
2019-05-29T02:57:57.637Z,5.27
2019-05-29T03:00:55.220Z,4.73
2019-05-29T03:03:31.591Z,4.77
2019-05-29T03:06:03.501Z,5.10
2019-05-29T03:08:36.361Z,4.93
2019-05-29T03:11:10.659Z,4.10
2019-05-29T03:13:43.968Z,4.60
2019-05-29T03:16:17.098Z,4.40
2019-05-29T03:18:50.250Z,4.40
2019-05-29T03:21:24.105Z,4.60
2019-05-29T03:23:57.492Z,4.87
2019-05-29T03:26:33.419Z,4.30
2019-05-29T03:29:06.556Z,5.23
2019-05-29T03:31:47.256Z,4.80
2019-05-29T03:34:14.752Z,4.40
2019-05-29T03:36:49.226Z,4.80
2019-05-29T03:39:22.499Z,5.27
2019-05-29T03:41:55.625Z,5.20
2019-05-29T03:44:30.258Z,5.20
2019-05-29T03:47:03.569Z,4.83
2019-05-29T03:49:37.690Z,4.33
2019-05-29T03:52:11.029Z,6.00
2019-05-29T03:54:44.140Z,5.17
2019-05-29T03:57:16.985Z,4.37
2019-05-29T03:59:50.168Z,4.13
2019-05-29T04:02:23.273Z,4.13
2019-05-29T04:04:56.354Z,4.40
2019-05-29T04:07:31.397Z,4.30
2019-05-29T04:10:04.559Z,4.33
2019-05-29T04:12:38.296Z,4.60
2019-05-29T04:15:14.110Z,4.10
2019-05-29T04:17:48.180Z,4.10
2019-05-29T04:20:21.432Z,4.23
2019-05-29T04:22:56.990Z,4.50
2019-05-29T04:25:39.599Z,4.13
2019-05-29T04:28:11.006Z,4.50
2019-05-29T04:30:44.164Z,4.60
2019-05-29T04:33:17.379Z,3.93
2019-05-29T04:35:50.523Z,4.33
2019-05-29T04:38:24.563Z,4.10
2019-05-29T04:40:57.881Z,4.20
2019-05-29T04:43:33.372Z,4.37
2019-05-29T04:46:07.126Z,4.40
2019-05-29T04:48:40.656Z,4.13
2019-05-29T04:51:14.301Z,4.37
2019-05-29T04:53:47.789Z,3.90
2019-05-29T04:56:21.512Z,4.00
2019-05-29T04:58:55.248Z,3.37
2019-05-29T05:01:29.078Z,2.90
2019-05-29T05:04:02.269Z,2.73
2019-05-29T05:06:35.391Z,2.40
2019-05-29T05:09:09.675Z,2.60
2019-05-29T05:11:43.029Z,2.40
2019-05-29T05:14:16.029Z,2.20
2019-05-29T05:16:49.679Z,2.47
2019-05-29T05:19:22.982Z,2.83
2019-05-29T05:21:56.432Z,2.47
2019-05-29T05:24:49.958Z,2.60
2019-05-29T05:27:23.134Z,2.20
2019-05-29T05:29:56.492Z,2.70
2019-05-29T05:32:30.583Z,2.70
2019-05-29T05:35:04.262Z,2.90
2019-05-29T05:37:38.554Z,2.37
2019-05-29T05:40:12.162Z,2.80
2019-05-29T05:42:45.202Z,2.40
2019-05-29T05:45:18.917Z,2.90
2019-05-29T05:47:57.420Z,3.13
2019-05-29T05:50:26.942Z,3.20
2019-05-29T05:53:00.290Z,2.90
2019-05-29T05:55:33.479Z,2.83
2019-05-29T05:58:06.892Z,2.60
2019-05-29T06:00:41.913Z,3.60
2019-05-29T06:03:16.332Z,3.30
2019-05-29T06:05:49.604Z,2.93
2019-05-29T06:08:22.925Z,3.00
2019-05-29T06:10:56.152Z,2.70
2019-05-29T06:13:29.228Z,3.00
2019-05-29T06:16:02.364Z,2.97
2019-05-29T06:18:36.565Z,3.10
2019-05-29T06:21:10.259Z,2.77
2019-05-29T06:23:43.793Z,3.80
2019-05-29T06:26:17.416Z,2.57
2019-05-29T06:28:50.715Z,2.60
2019-05-29T06:31:27.132Z,3.60
2019-05-29T06:33:59.259Z,3.60
2019-05-29T06:36:33.464Z,2.90
2019-05-29T06:39:08.018Z,4.70
2019-05-29T06:41:42.052Z,2.60
2019-05-29T06:44:15.349Z,3.13
2019-05-29T06:46:48.467Z,2.93
2019-05-29T06:49:21.622Z,4.13
2019-05-29T06:51:55.193Z,3.00
2019-05-29T06:54:28.409Z,2.93
2019-05-29T06:57:01.637Z,2.67
2019-05-29T06:59:36.087Z,2.67
2019-05-29T07:02:09.923Z,3.00
2019-05-29T07:04:43.186Z,3.17
2019-05-29T07:07:16.678Z,2.80
2019-05-29T07:09:50.128Z,3.00
2019-05-29T07:12:24.356Z,3.33
2019-05-29T07:14:57.442Z,2.83
2019-05-29T07:17:30.515Z,3.10
2019-05-29T07:20:04.453Z,4.10
2019-05-29T07:22:38.876Z,2.90
2019-05-29T07:25:12.228Z,3.07
2019-05-29T07:27:45.315Z,3.30
2019-05-29T07:30:19.185Z,3.30
2019-05-29T07:32:58.089Z,3.20
2019-05-29T07:35:30.021Z,3.77
2019-05-29T07:38:03.418Z,3.93
2019-05-29T07:40:38.447Z,3.50
2019-05-29T07:43:12.294Z,3.50
2019-05-29T07:45:46.145Z,3.77
2019-05-29T07:48:19.315Z,3.37
2019-05-29T07:51:06.225Z,3.20
2019-05-29T07:53:27.640Z,3.60
2019-05-29T07:56:01.016Z,3.80
2019-05-29T07:58:34.350Z,3.37
2019-05-29T08:01:13.380Z,3.40
2019-05-29T08:03:43.482Z,3.30
2019-05-29T08:06:16.623Z,3.63
2019-05-29T08:08:49.740Z,3.60
2019-05-29T08:11:23.485Z,3.60
2019-05-29T08:13:56.781Z,3.90
2019-05-29T08:16:29.998Z,3.03
2019-05-29T08:19:03.250Z,3.60
2019-05-29T08:21:36.799Z,3.70
2019-05-29T08:24:10.126Z,3.10
2019-05-29T08:26:44.813Z,3.00
2019-05-29T08:29:18.236Z,3.40
2019-05-29T08:31:51.466Z,3.20
2019-05-29T08:34:24.692Z,3.13
2019-05-29T08:37:06.571Z,3.63
2019-05-29T08:39:36.620Z,2.80
2019-05-29T08:42:22.468Z,3.03
2019-05-29T08:44:43.396Z,3.30
2019-05-29T08:47:16.469Z,2.90
2019-05-29T08:49:53.117Z,2.77
2019-05-29T08:52:24.655Z,2.77
2019-05-29T08:54:58.273Z,2.87
2019-05-29T08:57:31.510Z,2.43
2019-05-29T09:00:04.856Z,2.80
2019-05-29T09:02:37.893Z,2.57
2019-05-29T09:05:11.053Z,2.60
2019-05-29T09:07:46.367Z,2.60
2019-05-29T09:10:19.697Z,2.40
2019-05-29T09:13:03.880Z,2.53
2019-05-29T09:15:27.829Z,2.67
2019-05-29T09:18:01.419Z,2.30
2019-05-29T09:20:57.864Z,2.50
2019-05-29T09:23:09.414Z,2.63
2019-05-29T09:25:42.566Z,2.80
2019-05-29T09:28:18.404Z,2.30
2019-05-29T09:30:51.007Z,2.57
2019-05-29T09:33:24.609Z,2.40
2019-05-29T09:35:57.777Z,2.20
2019-05-29T09:38:30.945Z,2.30
2019-05-29T09:41:04.169Z,2.27
2019-05-29T09:43:37.267Z,2.20
2019-05-29T09:46:10.506Z,2.30
2019-05-29T09:48:49.908Z,2.37
2019-05-29T09:51:21.666Z,2.37
2019-05-29T09:53:54.334Z,2.13
2019-05-29T09:56:28.317Z,2.20
2019-05-29T09:59:02.461Z,2.30
2019-05-29T10:01:36.706Z,2.77
2019-05-29T10:04:10.301Z,2.20
2019-05-29T10:06:43.463Z,2.50
2019-05-29T10:09:16.911Z,2.40
2019-05-29T10:11:50.537Z,2.70
2019-05-29T10:14:23.651Z,2.60
2019-05-29T10:16:59.262Z,2.50
2019-05-29T10:19:31.986Z,2.50
2019-05-29T10:22:05.686Z,2.80
2019-05-29T10:24:39.071Z,2.30
2019-05-29T10:27:12.305Z,2.03
2019-05-29T10:29:49.598Z,2.50
2019-05-29T10:32:20.373Z,2.20
2019-05-29T10:34:53.726Z,2.13
2019-05-29T10:37:29.158Z,2.10
2019-05-29T10:40:03.509Z,1.90
2019-05-29T10:42:36.918Z,1.93
2019-05-29T10:45:11.227Z,1.80
2019-05-29T10:47:45.419Z,2.10
2019-05-29T10:50:19.247Z,2.00
2019-05-29T10:52:52.524Z,2.03
2019-05-29T10:55:26.435Z,2.23
2019-05-29T10:58:00.151Z,1.80
2019-05-29T11:00:33.586Z,2.00
2019-05-29T11:03:06.801Z,1.93
2019-05-29T11:05:40.175Z,2.00
2019-05-29T11:08:13.103Z,1.70
2019-05-29T11:10:46.355Z,2.30
2019-05-29T11:13:19.492Z,2.27
2019-05-29T11:15:52.961Z,2.40
2019-05-29T11:18:26.268Z,2.40
2019-05-29T11:20:59.493Z,2.60
2019-05-29T11:23:32.710Z,2.30
2019-05-29T11:26:06.049Z,2.40
2019-05-29T11:31:39.443Z,2.30
2019-05-29T11:34:13.827Z,2.23
2019-05-29T11:39:46.466Z,2.17
2019-05-29T11:42:27.431Z,2.60
2019-05-29T11:44:53.570Z,2.30
2019-05-29T11:47:26.289Z,2.00
2019-05-29T11:50:07.481Z,2.17
2019-05-29T11:52:42.352Z,2.17
2019-05-29T11:55:08.334Z,2.33
2019-05-29T11:57:40.998Z,1.73
2019-05-29T12:00:19.564Z,2.20
2019-05-29T12:02:48.462Z,2.30
2019-05-29T12:05:21.741Z,2.10
2019-05-29T12:07:55.367Z,2.30
2019-05-29T12:10:27.884Z,2.00
2019-05-29T12:13:01.614Z,2.40
2019-05-29T12:15:34.064Z,2.30
2019-05-29T12:18:23.066Z,2.40
2019-05-29T12:20:41.131Z,2.50
2019-05-29T12:23:25.999Z,2.07
2019-05-29T12:25:47.717Z,2.57
2019-05-29T12:28:20.053Z,2.30
2019-05-29T12:30:53.410Z,2.33
2019-05-29T12:33:26.510Z,2.23
2019-05-29T12:35:59.244Z,2.23
2019-05-29T12:38:31.779Z,2.03
2019-05-29T12:41:04.635Z,2.27
2019-05-29T12:43:40.258Z,1.90
2019-05-29T12:46:12.826Z,2.30
2019-05-29T12:48:45.312Z,2.20
2019-05-29T12:51:17.804Z,2.10
2019-05-29T12:53:50.619Z,2.17
2019-05-29T12:56:23.444Z,2.00
2019-05-29T12:58:56.437Z,2.40
2019-05-29T13:01:30.313Z,2.00
2019-05-29T13:04:04.599Z,2.20
2019-05-29T13:06:37.367Z,2.13
2019-05-29T13:09:10.888Z,2.40
2019-05-29T13:11:43.604Z,2.23
2019-05-29T13:14:16.274Z,2.10
2019-05-29T13:16:48.856Z,2.20
2019-05-29T13:19:21.758Z,2.33
2019-05-29T13:21:55.054Z,2.00
2019-05-29T13:24:27.716Z,2.10
2019-05-29T13:27:01.833Z,2.07
2019-05-29T13:29:34.651Z,2.00
2019-05-29T13:32:07.735Z,2.00
2019-05-29T13:34:40.716Z,2.07
2019-05-29T13:37:13.348Z,2.03
2019-05-29T13:39:45.874Z,2.37
2019-05-29T13:42:18.352Z,2.17
2019-05-29T13:44:50.925Z,2.20
2019-05-29T13:47:23.153Z,2.50
2019-05-29T13:49:56.914Z,2.10
2019-05-29T13:52:29.745Z,2.03
2019-05-29T13:55:02.022Z,2.17
2019-05-29T13:57:34.697Z,2.00
2019-05-29T14:00:31.678Z,1.97
2019-05-29T14:02:42.722Z,2.00
2019-05-29T14:05:16.614Z,2.00
2019-05-29T14:07:49.401Z,2.40
2019-05-29T14:10:22.056Z,2.00
2019-05-29T14:12:54.725Z,2.00
2019-05-29T14:15:29.159Z,2.57
2019-05-29T14:18:02.863Z,2.77
2019-05-29T14:20:35.335Z,2.10
2019-05-29T14:23:07.941Z,1.40
2019-05-29T14:25:40.553Z,1.50
2019-05-29T14:28:25.821Z,1.50
2019-05-29T14:31:00.248Z,1.23
2019-05-29T14:33:33.458Z,1.50
2019-05-29T14:36:07.674Z,1.70
2019-05-29T14:38:40.940Z,2.20
2019-05-29T14:41:14.230Z,1.90
2019-05-29T14:43:47.374Z,1.80
2019-05-29T14:46:20.839Z,1.90
2019-05-29T14:48:54.344Z,1.87
2019-05-29T14:51:27.510Z,2.00
2019-05-29T14:54:02.771Z,1.93
2019-05-29T14:56:36.587Z,1.90
2019-05-29T14:59:11.120Z,1.90
2019-05-29T15:01:45.083Z,2.30
2019-05-29T15:04:18.651Z,2.10
2019-05-29T15:06:52.141Z,2.13
2019-05-29T15:09:25.331Z,1.97
2019-05-29T15:11:59.005Z,2.13
2019-05-29T15:14:32.968Z,1.90
2019-05-29T15:17:09.048Z,1.90
2019-05-29T15:19:42.622Z,2.30
2019-05-29T15:22:16.172Z,1.90
2019-05-29T15:25:04.163Z,2.10
2019-05-29T15:27:25.651Z,2.00
2019-05-29T15:29:59.079Z,1.87
2019-05-29T15:32:32.351Z,1.87
2019-05-29T15:35:06.536Z,1.83
2019-05-29T15:37:40.530Z,1.70
2019-05-29T15:40:14.900Z,1.60
2019-05-29T15:42:49.566Z,1.63
2019-05-29T15:45:25.351Z,1.93
2019-05-29T15:47:58.662Z,2.00
2019-05-29T15:50:32.600Z,1.93
2019-05-29T15:53:07.080Z,1.77
2019-05-29T15:55:40.669Z,1.93
2019-05-29T15:58:13.713Z,1.70
2019-05-29T16:00:47.146Z,1.70
2019-05-29T16:03:20.917Z,1.90
2019-05-29T16:05:54.705Z,1.77
2019-05-29T16:08:28.145Z,1.77
2019-05-29T16:11:01.404Z,1.77
2019-05-29T16:13:34.739Z,1.90
2019-05-29T16:16:09.315Z,1.80
2019-05-29T16:18:42.522Z,1.83
2019-05-29T16:21:16.608Z,1.70
2019-05-29T16:23:49.811Z,1.80
2019-05-29T16:26:24.027Z,2.17
2019-05-29T16:28:57.650Z,1.90
2019-05-29T16:31:35.067Z,1.77
2019-05-29T16:34:08.817Z,1.80
2019-05-29T16:36:42.379Z,1.70
2019-05-29T16:39:16.156Z,1.70
2019-05-29T16:41:49.112Z,1.80
2019-05-29T16:44:28.789Z,1.80
2019-05-29T16:46:58.398Z,1.80
2019-05-29T16:49:32.282Z,1.90
2019-05-29T16:52:08.857Z,1.90
2019-05-29T16:54:42.563Z,1.83
2019-05-29T16:57:17.091Z,1.77
2019-05-29T16:59:50.984Z,2.10
2019-05-29T17:02:24.209Z,1.87
2019-05-29T17:04:58.609Z,1.80
2019-05-29T17:07:36.682Z,2.07
2019-05-29T17:10:12.541Z,1.70
2019-05-29T17:12:51.620Z,1.87
2019-05-29T17:15:25.572Z,1.90
2019-05-29T17:17:59.415Z,2.13
2019-05-29T17:20:48.746Z,2.00
2019-05-29T17:23:25.647Z,1.90
2019-05-29T17:26:10.295Z,1.93
2019-05-29T17:28:35.213Z,1.90
2019-05-29T17:31:12.135Z,1.83
2019-05-29T17:33:46.165Z,2.13
2019-05-29T17:36:19.601Z,1.90
2019-05-29T17:38:53.061Z,2.20
2019-05-29T17:41:27.008Z,2.20
2019-05-29T17:44:00.567Z,2.27
2019-05-29T17:46:34.066Z,2.40
2019-05-29T17:49:07.566Z,2.03
2019-05-29T17:51:41.170Z,2.17
2019-05-29T17:54:14.061Z,2.23
2019-05-29T17:56:47.569Z,2.33
2019-05-29T17:59:22.115Z,2.33
2019-05-29T18:01:55.665Z,2.60
2019-05-29T18:04:32.448Z,2.40
2019-05-29T18:07:06.068Z,2.57
2019-05-29T18:09:39.288Z,2.10
2019-05-29T18:12:12.992Z,2.50
2019-05-29T18:14:46.993Z,2.70
2019-05-29T18:17:21.400Z,2.57
2019-05-29T18:19:54.771Z,3.00
2019-05-29T18:22:28.246Z,2.60
2019-05-29T18:25:02.238Z,2.63
2019-05-29T18:27:35.362Z,2.47
2019-05-29T18:30:10.141Z,2.80
2019-05-29T18:32:43.606Z,2.37
2019-05-29T18:35:18.886Z,2.33
2019-05-29T18:37:53.499Z,2.50
2019-05-29T18:40:28.378Z,2.37
2019-05-29T18:43:02.017Z,2.57
2019-05-29T18:45:35.590Z,2.40
2019-05-29T18:48:09.478Z,2.60
2019-05-29T18:50:44.329Z,2.50
2019-05-29T18:53:18.795Z,2.40
2019-05-29T18:55:51.816Z,2.23
2019-05-29T18:58:26.003Z,2.57
2019-05-29T19:00:59.279Z,2.80
2019-05-29T19:03:32.929Z,2.67
2019-05-29T19:06:06.577Z,2.33
2019-05-29T19:08:43.139Z,2.43
2019-05-29T19:11:18.540Z,2.30
2019-05-29T19:13:53.125Z,2.50
2019-05-29T19:16:30.039Z,2.40
2019-05-29T19:19:03.845Z,2.57
2019-05-29T19:21:37.447Z,2.60
2019-05-29T19:24:11.739Z,2.30
2019-05-29T19:26:47.946Z,2.90
2019-05-29T19:29:22.989Z,2.33
2019-05-29T19:32:00.396Z,2.40
2019-05-29T19:34:35.543Z,2.33
2019-05-29T19:37:11.082Z,2.20
2019-05-29T19:39:44.578Z,2.30
2019-05-29T19:42:18.366Z,2.80
2019-05-29T19:44:51.796Z,2.30
2019-05-29T19:47:26.474Z,2.60
2019-05-29T19:50:00.433Z,2.40
2019-05-29T19:52:35.319Z,2.73
2019-05-29T19:55:10.057Z,2.40
2019-05-29T19:57:55.608Z,2.13
2019-05-29T20:00:19.063Z,2.20
2019-05-29T20:02:52.525Z,2.10
2019-05-29T20:05:28.551Z,2.40
2019-05-29T20:08:04.336Z,2.20
2019-05-29T20:10:37.864Z,1.77
2019-05-29T20:13:12.971Z,1.87
2019-05-29T20:15:46.273Z,2.20
2019-05-29T20:18:19.876Z,2.00
2019-05-29T20:20:53.278Z,1.80
2019-05-29T20:23:26.857Z,2.10
2019-05-29T20:26:00.368Z,2.10
2019-05-29T20:28:34.246Z,1.93
2019-05-29T20:31:11.185Z,2.00
2019-05-29T20:33:42.817Z,2.23
2019-05-29T20:36:16.404Z,1.87
2019-05-29T20:38:50.103Z,2.00
2019-05-29T20:41:23.659Z,2.00
2019-05-29T20:43:57.006Z,2.00
2019-05-29T20:46:30.479Z,2.27
2019-05-29T20:49:03.579Z,1.87
2019-05-29T20:51:38.293Z,2.00
2019-05-29T20:54:11.562Z,2.20
2019-05-29T20:56:45.092Z,1.80
2019-05-29T20:59:18.711Z,1.90
2019-05-29T21:01:52.343Z,1.90
2019-05-29T21:04:25.789Z,2.00
2019-05-29T21:06:59.052Z,1.90
2019-05-29T21:09:32.942Z,2.00
2019-05-29T21:12:06.320Z,2.13
2019-05-29T21:14:39.797Z,2.00
2019-05-29T21:17:13.351Z,1.80
2019-05-29T21:19:47.029Z,2.00
2019-05-29T21:22:20.545Z,1.87
2019-05-29T21:25:01.660Z,2.00
2019-05-29T21:27:30.209Z,2.00
2019-05-29T21:30:03.474Z,2.00
2019-05-29T21:32:40.026Z,1.87
2019-05-29T21:35:13.371Z,1.70
2019-05-29T21:37:46.994Z,1.60
2019-05-29T21:40:20.646Z,1.83
2019-05-29T21:42:54.220Z,2.00
2019-05-29T21:45:27.387Z,2.00
2019-05-29T21:48:00.998Z,2.10
2019-05-29T21:50:37.061Z,2.10
2019-05-29T21:53:10.845Z,2.10
2019-05-29T21:55:47.849Z,2.03
2019-05-29T21:58:21.246Z,2.10
2019-05-29T22:00:55.489Z,2.20
2019-05-29T22:03:29.077Z,1.70
2019-05-29T22:06:02.357Z,2.07
2019-05-29T22:08:36.266Z,2.00
2019-05-29T22:11:09.348Z,1.70
2019-05-29T22:13:44.131Z,1.90
2019-05-29T22:16:17.546Z,2.37
2019-05-29T22:18:50.906Z,1.90
2019-05-29T22:21:24.358Z,2.00
2019-05-29T22:23:57.588Z,2.00
2019-05-29T22:26:31.096Z,1.80
2019-05-29T22:29:17.403Z,2.10
2019-05-29T22:31:39.309Z,2.23
2019-05-29T22:34:12.827Z,1.87
2019-05-29T22:36:46.509Z,1.77
2019-05-29T22:39:20.782Z,2.20
2019-05-29T22:41:55.778Z,1.87
2019-05-29T22:44:28.867Z,2.50
2019-05-29T22:47:02.544Z,1.90
2019-05-29T22:49:35.904Z,2.20
2019-05-29T22:52:09.035Z,2.00
2019-05-29T22:54:42.446Z,1.90
2019-05-29T22:57:15.565Z,2.10
2019-05-29T22:59:48.596Z,1.90
2019-05-29T23:02:21.684Z,1.90
2019-05-29T23:04:56.123Z,2.17
2019-05-29T23:07:29.263Z,2.10
2019-05-29T23:10:02.663Z,2.10
2019-05-29T23:12:35.863Z,2.03
2019-05-29T23:15:09.750Z,2.10
2019-05-29T23:17:42.762Z,2.07
2019-05-29T23:20:15.932Z,2.03
2019-05-29T23:22:49.144Z,2.10
2019-05-29T23:25:22.073Z,2.00
2019-05-29T23:27:55.175Z,1.93
2019-05-29T23:30:30.420Z,1.80
2019-05-29T23:33:03.419Z,2.00
2019-05-29T23:35:36.586Z,2.00
2019-05-29T23:38:09.994Z,2.03
2019-05-29T23:40:43.155Z,1.97
2019-05-29T23:43:18.173Z,2.20
2019-05-29T23:45:51.174Z,1.87
2019-05-29T23:48:24.830Z,2.20
2019-05-29T23:50:57.845Z,2.40
2019-05-29T23:53:30.998Z,2.10
2019-05-29T23:56:04.089Z,2.07
2019-05-29T23:58:37.260Z,2.27
